createdAt,value
2018-12-15T16:42:04.724Z,84.58
2018-12-15T16:43:04.661Z,84.10
2018-12-15T16:44:04.716Z,84.67
2018-12-15T16:45:04.759Z,84.29
2018-12-15T16:46:04.807Z,84.29
2018-12-15T16:47:04.868Z,84.10
2018-12-15T16:48:04.920Z,83.72
2018-12-15T16:49:06.107Z,83.63
2018-12-15T16:50:05.016Z,83.53
2018-12-15T16:51:05.072Z,83.72
2018-12-15T16:52:05.168Z,84.20
2018-12-15T16:53:05.176Z,83.63
2018-12-15T16:54:05.232Z,83.91
2018-12-15T16:55:05.288Z,83.72
2018-12-15T16:56:05.341Z,84.10
2018-12-15T16:57:05.409Z,83.91
2018-12-15T16:58:05.460Z,83.91
2018-12-15T16:59:05.505Z,84.67
2018-12-15T17:00:05.560Z,84.10
2018-12-15T17:01:05.618Z,84.01
2018-12-15T17:02:05.681Z,84.20
2018-12-15T17:03:05.740Z,84.48
2018-12-15T17:04:05.785Z,84.48
2018-12-15T17:05:05.844Z,84.20
2018-12-15T17:06:06.034Z,84.20
2018-12-15T17:07:06.337Z,84.10
2018-12-15T17:08:06.180Z,84.20
2018-12-15T17:09:06.060Z,84.67
2018-12-15T17:10:06.125Z,84.39
2018-12-15T17:11:06.201Z,84.48
2018-12-15T17:12:06.290Z,84.48
2018-12-15T17:13:06.289Z,84.20
2018-12-15T17:14:06.397Z,84.67
2018-12-15T17:15:06.505Z,85.24
2018-12-15T17:16:07.329Z,85.05
2018-12-15T17:17:24.899Z,84.58
2018-12-15T17:18:06.609Z,84.67
2018-12-15T17:19:06.690Z,84.58
2018-12-15T17:20:08.282Z,84.29
2018-12-15T17:21:09.326Z,84.58
2018-12-15T17:22:06.830Z,84.67
2018-12-15T17:23:07.298Z,84.67
2018-12-15T17:24:07.122Z,85.05
2018-12-15T17:25:07.270Z,84.95
2018-12-15T17:26:07.670Z,85.05
2018-12-15T17:27:07.140Z,84.77
2018-12-15T17:28:07.272Z,85.24
2018-12-15T17:29:07.262Z,84.67
2018-12-15T17:30:07.249Z,84.58
2018-12-15T17:31:07.306Z,84.77
2018-12-15T17:32:07.365Z,84.58
2018-12-15T17:33:07.419Z,84.77
2018-12-15T17:34:07.482Z,84.86
2018-12-15T17:35:07.538Z,84.67
2018-12-15T17:36:07.586Z,84.77
2018-12-15T17:37:07.638Z,84.86
2018-12-15T17:38:07.701Z,84.67
2018-12-15T17:39:07.762Z,85.05
2018-12-15T17:40:07.854Z,85.24
2018-12-15T17:41:07.867Z,84.95
2018-12-15T17:42:07.926Z,85.05
2018-12-15T17:43:07.991Z,84.86
2018-12-15T17:44:08.050Z,84.77
2018-12-15T17:45:08.119Z,84.86
2018-12-15T17:46:08.155Z,85.05
2018-12-15T17:47:08.207Z,85.14
2018-12-15T17:48:08.265Z,85.33
2018-12-15T17:49:08.423Z,85.05
2018-12-15T17:50:08.383Z,85.05
2018-12-15T17:51:08.435Z,85.52
2018-12-15T17:52:08.491Z,85.52
2018-12-15T17:53:08.547Z,85.90
2018-12-15T17:54:08.611Z,85.61
2018-12-15T17:55:08.668Z,85.52
2018-12-15T17:56:08.718Z,85.24
2018-12-15T17:57:08.771Z,84.77
2018-12-15T17:58:14.567Z,85.05
2018-12-15T17:59:08.891Z,84.95
2018-12-15T18:00:09.028Z,84.95
2018-12-15T18:01:09.008Z,84.86
2018-12-15T18:02:09.052Z,85.14
2018-12-15T18:03:09.108Z,85.14
2018-12-15T18:04:09.289Z,85.14
2018-12-15T18:05:09.219Z,85.33
2018-12-15T18:06:09.280Z,85.52
2018-12-15T18:07:09.396Z,85.24
2018-12-15T18:08:09.391Z,85.61
2018-12-15T18:09:09.459Z,85.52
2018-12-15T18:10:09.512Z,85.42
2018-12-15T18:11:09.562Z,85.71
2018-12-15T18:12:09.615Z,85.99
2018-12-15T18:13:09.678Z,85.71
2018-12-15T18:14:09.736Z,85.80
2018-12-15T18:15:09.792Z,86.28
2018-12-15T18:16:09.840Z,85.71
2018-12-15T18:17:09.897Z,86.09
2018-12-15T18:18:09.952Z,85.90
2018-12-15T18:19:10.016Z,86.09
2018-12-15T18:20:10.105Z,85.90
2018-12-15T18:21:10.178Z,85.90
2018-12-15T18:22:10.177Z,85.80
2018-12-15T18:23:10.233Z,85.90
2018-12-15T18:24:10.341Z,86.09
2018-12-15T18:25:10.345Z,85.80
2018-12-15T18:26:10.401Z,85.99
2018-12-15T18:27:10.460Z,85.90
2018-12-15T18:28:10.519Z,86.28
2018-12-15T18:29:10.577Z,86.18
2018-12-15T18:30:10.645Z,85.80
2018-12-15T18:31:10.686Z,86.37
2018-12-15T18:32:10.749Z,86.66
2018-12-15T18:33:10.797Z,86.66
2018-12-15T18:34:10.857Z,86.56
2018-12-15T18:35:10.917Z,86.28
2018-12-15T18:36:10.965Z,86.14
2018-12-15T18:37:11.021Z,86.42
2018-12-15T18:38:11.078Z,86.33
2018-12-15T18:39:11.182Z,86.18
2018-12-15T18:40:11.191Z,86.75
2018-12-15T18:41:11.265Z,86.42
2018-12-15T18:42:11.302Z,86.80
2018-12-15T18:43:11.358Z,86.61
2018-12-15T18:44:11.422Z,86.66
2018-12-15T18:45:11.479Z,86.56
2018-12-15T18:46:11.527Z,86.56
2018-12-15T18:47:11.582Z,86.09
2018-12-15T18:48:11.638Z,86.28
2018-12-15T18:49:11.703Z,86.37
2018-12-15T18:50:11.758Z,86.37
2018-12-15T18:51:16.381Z,86.56
2018-12-15T18:52:11.858Z,86.56
2018-12-15T18:53:11.919Z,86.28
2018-12-15T18:54:11.982Z,86.09
2018-12-15T18:55:12.039Z,86.56
2018-12-15T18:56:12.086Z,86.28
2018-12-15T18:57:12.142Z,86.52
2018-12-15T18:58:12.198Z,86.47
2018-12-15T18:59:12.280Z,86.09
2018-12-15T19:00:12.314Z,86.47
2018-12-15T19:01:12.367Z,86.18
2018-12-15T19:02:12.455Z,85.85
2018-12-15T19:03:12.479Z,86.14
2018-12-15T19:04:12.543Z,86.47
2018-12-15T19:05:12.598Z,86.09
2018-12-15T19:06:12.649Z,86.09
2018-12-15T19:07:12.707Z,86.28
2018-12-15T19:08:12.759Z,86.94
2018-12-15T19:09:13.092Z,86.61
2018-12-15T19:10:12.878Z,86.37
2018-12-15T19:11:12.927Z,86.56
2018-12-15T19:12:12.983Z,86.52
2018-12-15T19:13:13.039Z,86.18
2018-12-15T19:14:13.207Z,86.61
2018-12-15T19:15:13.152Z,86.52
2018-12-15T19:16:13.443Z,86.61
2018-12-15T19:17:13.264Z,86.94
2018-12-15T19:18:13.319Z,86.75
2018-12-15T19:19:13.405Z,86.90
2018-12-15T19:20:13.439Z,86.85
2018-12-15T19:21:13.487Z,86.75
2018-12-15T19:22:13.543Z,86.90
2018-12-15T19:23:13.599Z,86.80
2018-12-15T19:24:13.664Z,86.75
2018-12-15T19:25:13.717Z,86.47
2018-12-15T19:26:13.770Z,86.37
2018-12-15T19:27:13.824Z,86.18
2018-12-15T19:28:13.884Z,86.28
2018-12-15T19:29:13.975Z,86.18
2018-12-15T19:30:13.997Z,85.90
2018-12-15T19:31:14.048Z,86.66
2018-12-15T19:32:14.104Z,86.61
2018-12-15T19:33:14.156Z,86.52
2018-12-15T19:34:17.442Z,86.56
2018-12-15T19:35:14.598Z,86.56
2018-12-15T19:36:14.328Z,86.09
2018-12-15T19:37:14.381Z,86.56
2018-12-15T19:38:14.437Z,86.04
2018-12-15T19:39:15.225Z,86.42
2018-12-15T19:40:14.585Z,86.56
2018-12-15T19:41:14.613Z,86.80
2018-12-15T19:42:14.661Z,87.08
2018-12-15T19:43:14.713Z,86.99
2018-12-15T19:44:14.773Z,87.08
2018-12-15T19:45:14.836Z,87.46
2018-12-15T19:46:14.893Z,87.18
2018-12-15T19:47:14.945Z,86.61
2018-12-15T19:48:14.997Z,86.61
2018-12-15T19:49:15.173Z,87.18
2018-12-15T19:50:15.174Z,87.18
2018-12-15T19:51:15.165Z,86.99
2018-12-15T19:52:15.226Z,87.23
2018-12-15T19:53:15.277Z,87.46
2018-12-15T19:54:15.335Z,87.23
2018-12-15T19:55:15.402Z,86.75
2018-12-15T19:56:15.450Z,86.75
2018-12-15T19:57:15.505Z,86.71
2018-12-15T19:58:15.558Z,86.66
2018-12-15T19:59:15.625Z,87.18
2018-12-15T20:00:15.674Z,86.71
2018-12-15T20:01:15.730Z,86.66
2018-12-15T20:02:15.778Z,86.52
2018-12-15T20:03:15.878Z,86.99
2018-12-15T20:04:15.890Z,87.37
2018-12-15T20:05:15.992Z,87.37
2018-12-15T20:06:16.010Z,87.37
2018-12-15T20:07:16.062Z,87.37
2018-12-15T20:08:16.114Z,87.46
2018-12-15T20:09:16.654Z,87.27
2018-12-15T20:10:16.226Z,87.46
2018-12-15T20:11:16.302Z,87.37
2018-12-15T20:12:16.338Z,87.08
2018-12-15T20:13:16.395Z,87.08
2018-12-15T20:14:16.450Z,87.08
2018-12-15T20:15:16.506Z,87.37
2018-12-15T20:16:16.576Z,87.84
2018-12-15T20:17:16.627Z,87.37
2018-12-15T20:18:16.675Z,87.27
2018-12-15T20:19:16.732Z,87.37
2018-12-15T20:20:16.782Z,87.37
2018-12-15T20:21:16.847Z,87.27
2018-12-15T20:22:16.906Z,87.27
2018-12-15T20:23:17.211Z,87.27
2018-12-15T20:24:17.007Z,87.37
2018-12-15T20:25:17.067Z,87.46
2018-12-15T20:26:17.119Z,87.37
2018-12-15T20:27:17.271Z,87.84
2018-12-15T20:28:17.232Z,87.93
2018-12-15T20:29:17.288Z,87.55
2018-12-15T20:30:17.344Z,87.74
2018-12-15T20:31:17.399Z,87.74
2018-12-15T20:32:17.467Z,87.74
2018-12-15T20:33:17.516Z,87.93
2018-12-15T20:34:17.568Z,87.74
2018-12-15T20:35:17.620Z,87.93
2018-12-15T20:36:17.676Z,87.55
2018-12-15T20:37:17.739Z,87.27
2018-12-15T20:38:17.800Z,87.27
2018-12-15T20:39:17.844Z,86.71
2018-12-15T20:40:17.900Z,86.99
2018-12-15T20:41:19.272Z,86.99
2018-12-15T20:42:18.022Z,86.99
2018-12-15T20:43:18.076Z,86.61
2018-12-15T20:44:18.132Z,86.42
2018-12-15T20:45:18.180Z,86.90
2018-12-15T20:46:18.241Z,86.71
2018-12-15T20:47:18.302Z,86.90
2018-12-15T20:48:18.356Z,86.42
2018-12-15T20:49:18.405Z,86.80
2018-12-15T20:50:18.461Z,86.80
2018-12-15T20:51:18.525Z,86.33
2018-12-15T20:52:18.581Z,86.71
2018-12-15T20:53:18.633Z,86.52
2018-12-15T20:54:18.681Z,86.52
2018-12-15T20:55:18.737Z,86.42
2018-12-15T20:56:18.793Z,86.52
2018-12-15T20:57:18.883Z,86.90
2018-12-15T20:58:19.016Z,86.99
2018-12-15T20:59:18.964Z,86.52
2018-12-15T21:00:19.028Z,86.71
2018-12-15T21:01:19.073Z,86.80
2018-12-15T21:02:19.129Z,86.80
2018-12-15T21:03:19.231Z,86.90
2018-12-15T21:04:19.242Z,86.61
2018-12-15T21:05:19.301Z,86.14
2018-12-15T21:06:19.365Z,86.42
2018-12-15T21:07:19.409Z,86.61
2018-12-15T21:08:19.469Z,86.33
2018-12-15T21:09:19.530Z,86.14
2018-12-15T21:10:19.577Z,86.99
2018-12-15T21:11:24.129Z,86.71
2018-12-15T21:12:19.716Z,86.71
2018-12-15T21:13:19.750Z,86.71
2018-12-15T21:14:19.808Z,86.52
2018-12-15T21:15:19.855Z,86.80
2018-12-15T21:16:20.050Z,86.80
2018-12-15T21:17:19.968Z,86.71
2018-12-15T21:18:20.026Z,86.71
2018-12-15T21:19:20.086Z,86.99
2018-12-15T21:20:20.135Z,86.90
2018-12-15T21:21:20.189Z,86.80
2018-12-15T21:22:20.511Z,86.71
2018-12-15T21:23:20.306Z,86.71
2018-12-15T21:24:20.366Z,86.80
2018-12-15T21:25:20.410Z,86.80
2018-12-15T21:26:20.602Z,86.52
